createdAt,value
2023-04-01T00:01:27.371Z,98971.81
2023-04-01T00:04:30.102Z,98968.22
2023-04-01T00:07:34.125Z,98960.72
2023-04-01T00:10:36.819Z,98957.53
2023-04-01T00:13:39.702Z,98957.13
2023-04-01T00:16:42.474Z,98963.66
2023-04-01T00:19:45.160Z,98963.06
2023-04-01T00:22:47.713Z,98953.50
2023-04-01T00:25:50.629Z,98967.03
2023-04-01T00:28:53.442Z,98966.91
2023-04-01T00:31:57.457Z,98968.59
2023-04-01T00:35:02.634Z,98961.53
2023-04-01T00:38:05.548Z,98956.00
2023-04-01T00:41:08.248Z,98954.41
2023-04-01T00:44:23.259Z,98949.47
2023-04-01T00:47:27.767Z,98930.47
2023-04-01T00:50:32.004Z,98950.78
2023-04-01T00:53:37.733Z,98964.13
2023-04-01T00:56:44.483Z,98943.56
2023-04-01T00:59:50.794Z,98945.91
2023-04-01T01:02:53.830Z,98965.06
2023-04-01T01:06:10.745Z,98937.22
2023-04-01T01:09:58.058Z,98964.75
2023-04-01T01:13:32.482Z,98963.38
2023-04-01T01:16:43.676Z,98951.75
2023-04-01T01:20:25.279Z,98960.72
2023-04-01T01:23:59.982Z,98954.16
2023-04-01T01:27:14.911Z,98964.03
2023-04-01T01:30:48.784Z,98947.03
2023-04-01T01:34:19.296Z,98957.94
2023-04-01T01:37:24.878Z,98930.63
2023-04-01T01:40:29.651Z,98939.00
2023-04-01T01:43:43.972Z,98958.81
2023-04-01T01:46:51.030Z,98948.94
2023-04-01T01:49:54.436Z,98949.56
2023-04-01T01:53:09.126Z,98950.63
2023-04-01T01:56:16.848Z,98952.13
2023-04-01T01:59:22.045Z,98945.25
2023-04-01T02:02:25.611Z,98940.91
2023-04-01T02:05:31.921Z,98940.41
2023-04-01T02:09:11.838Z,98942.53
2023-04-01T02:12:17.927Z,98923.03
2023-04-01T02:15:21.637Z,98922.59
2023-04-01T02:18:25.651Z,98933.47
2023-04-01T02:21:32.048Z,98900.63
2023-04-01T02:24:36.690Z,98911.72
2023-04-01T02:27:40.285Z,98892.94
2023-04-01T02:30:44.239Z,98917.78
2023-04-01T02:33:47.928Z,98896.44
2023-04-01T02:36:51.707Z,98902.78
2023-04-01T02:39:54.391Z,98914.00
2023-04-01T02:42:56.996Z,98908.25
2023-04-01T02:45:59.604Z,98914.38
2023-04-01T02:49:02.137Z,98910.25
2023-04-01T02:52:05.864Z,98904.88
2023-04-01T02:55:08.980Z,98901.09
2023-04-01T02:58:11.815Z,98898.44
2023-04-01T03:01:15.164Z,98897.34
2023-04-01T03:04:17.861Z,98894.69
2023-04-01T03:07:20.673Z,98899.81
2023-04-01T03:10:25.520Z,98907.19
2023-04-01T03:13:28.315Z,98907.13
2023-04-01T03:16:31.083Z,98919.41
2023-04-01T03:19:33.729Z,98905.44
2023-04-01T03:22:43.059Z,98909.94
2023-04-01T03:25:46.222Z,98907.59
2023-04-01T03:28:48.953Z,98920.69
2023-04-01T03:31:51.695Z,98905.75
2023-04-01T03:34:54.479Z,98897.97
2023-04-01T03:37:57.223Z,98925.97
2023-04-01T03:41:00.286Z,98909.72
2023-04-01T03:44:03.268Z,98897.25
2023-04-01T03:47:05.931Z,98928.25
2023-04-01T03:50:09.645Z,98928.44
2023-04-01T03:53:12.432Z,98915.16
2023-04-01T03:56:17.706Z,98932.63
2023-04-01T03:59:20.354Z,98916.66
2023-04-01T04:02:23.065Z,98917.31
2023-04-01T04:05:29.790Z,98917.78
2023-04-01T04:08:35.647Z,98908.97
2023-04-01T04:11:38.212Z,98920.59
2023-04-01T04:14:41.206Z,98904.44
2023-04-01T04:17:45.077Z,98909.00
2023-04-01T04:20:49.675Z,98913.81
2023-04-01T04:23:54.962Z,98908.00
2023-04-01T04:26:57.638Z,98919.63
2023-04-01T04:30:00.377Z,98922.16
2023-04-01T04:33:03.093Z,98918.09
2023-04-01T04:36:06.257Z,98929.94
2023-04-01T04:39:08.987Z,98928.66
2023-04-01T04:42:14.305Z,98927.59
2023-04-01T04:45:17.053Z,98949.13
2023-04-01T04:48:28.575Z,98950.84
2023-04-01T04:51:31.185Z,98935.19
2023-04-01T04:54:33.875Z,98957.88
2023-04-01T04:57:38.336Z,98963.59
2023-04-01T05:00:41.182Z,98956.47
2023-04-01T05:03:48.053Z,98958.81
2023-04-01T05:06:50.864Z,98961.03
2023-04-01T05:09:53.949Z,98958.97
2023-04-01T05:12:56.561Z,98953.84
2023-04-01T05:15:59.888Z,98962.09
2023-04-01T05:19:02.423Z,98951.91
2023-04-01T05:22:06.189Z,98954.41
2023-04-01T05:25:09.247Z,98945.34
2023-04-01T05:28:13.615Z,98952.13
2023-04-01T05:31:18.184Z,98961.47
2023-04-01T05:34:25.549Z,98948.78
2023-04-01T05:37:28.211Z,98930.84
2023-04-01T05:40:34.186Z,98960.66
2023-04-01T05:43:39.226Z,98963.94
2023-04-01T05:47:10.495Z,98960.03
2023-04-01T05:50:13.882Z,98954.47
2023-04-01T05:53:19.470Z,98966.00
2023-04-01T05:56:22.769Z,98962.06
2023-04-01T05:59:27.402Z,98959.50
2023-04-01T06:02:30.175Z,98972.16
2023-04-01T06:05:42.358Z,98967.72
2023-04-01T06:08:44.926Z,98963.28
2023-04-01T06:12:05.645Z,98966.59
2023-04-01T06:15:33.780Z,98951.97
2023-04-01T06:18:54.419Z,98964.38
2023-04-01T06:22:14.741Z,98967.44
2023-04-01T06:26:03.623Z,98968.84
2023-04-01T06:29:17.861Z,98974.78
2023-04-01T06:32:44.397Z,98950.56
2023-04-01T06:35:54.412Z,98969.00
2023-04-01T06:39:27.256Z,98969.06
2023-04-01T06:42:44.109Z,98975.31
2023-04-01T06:46:21.182Z,98979.91
2023-04-01T06:50:04.019Z,98977.09
2023-04-01T06:54:06.503Z,98980.16
2023-04-01T06:57:56.509Z,98984.66
2023-04-01T07:01:02.180Z,98983.91
2023-04-01T07:04:30.807Z,98994.03
2023-04-01T07:07:33.488Z,98991.09
2023-04-01T07:10:59.598Z,98994.84
2023-04-01T07:14:33.574Z,98994.84
2023-04-01T07:17:46.735Z,98993.47
2023-04-01T07:20:50.067Z,98998.22
2023-04-01T07:23:54.359Z,99002.81
2023-04-01T07:27:21.386Z,99003.41
2023-04-01T07:30:26.020Z,99011.16
2023-04-01T07:33:39.123Z,99012.84
2023-04-01T07:36:41.737Z,99019.28
2023-04-01T07:39:52.808Z,99014.81
2023-04-01T07:43:18.951Z,99021.75
2023-04-01T07:46:52.614Z,99020.78
2023-04-01T07:50:28.909Z,99024.00
2023-04-01T07:53:44.972Z,99024.53
2023-04-01T07:57:00.207Z,99015.25
2023-04-01T08:00:43.870Z,99014.47
2023-04-01T08:04:06.375Z,99018.78
2023-04-01T08:07:19.482Z,99008.94
2023-04-01T08:11:17.718Z,99016.69
2023-04-01T08:14:57.405Z,99022.03
2023-04-01T08:18:29.086Z,99020.97
2023-04-01T08:21:45.114Z,99026.84
2023-04-01T08:24:49.699Z,99021.78
2023-04-01T08:28:23.626Z,99024.69
2023-04-01T08:31:35.888Z,99014.06
2023-04-01T08:34:45.092Z,99029.25
2023-04-01T08:41:40.068Z,99008.72
2023-04-01T08:45:14.630Z,99015.41
2023-04-01T08:48:30.715Z,99011.66
2023-04-01T08:52:11.853Z,99006.81
2023-04-01T08:55:55.800Z,99008.97
2023-04-01T08:59:14.441Z,99007.34
2023-04-01T09:02:35.463Z,99004.66
2023-04-01T09:06:02.262Z,99004.06
2023-04-01T09:09:32.279Z,99007.56
2023-04-01T09:12:56.816Z,99004.06
2023-04-01T09:16:22.930Z,99007.47
2023-04-01T09:19:26.247Z,98998.91
2023-04-01T09:22:37.119Z,98994.53
2023-04-01T09:26:08.485Z,99003.59
2023-04-01T09:29:36.690Z,99007.31
2023-04-01T09:32:51.676Z,99008.53
2023-04-01T09:36:15.731Z,98999.81
2023-04-01T09:39:37.531Z,99012.50
2023-04-01T09:43:01.912Z,99018.41
2023-04-01T09:46:22.175Z,99012.88
2023-04-01T09:49:38.052Z,99009.97
2023-04-01T09:52:41.577Z,99006.78
2023-04-01T09:55:59.253Z,98986.38
2023-04-01T09:59:40.687Z,99004.38
2023-04-01T10:03:04.420Z,98997.50
2023-04-01T10:06:22.808Z,98999.94
2023-04-01T10:09:50.980Z,98999.06
2023-04-01T10:13:05.504Z,99002.25
2023-04-01T10:16:26.852Z,99001.16
2023-04-01T10:19:42.886Z,98998.34
2023-04-01T10:23:00.652Z,98991.63
2023-04-01T10:26:26.627Z,98994.31
2023-04-01T10:30:07.910Z,99003.28
2023-04-01T10:33:35.966Z,99011.69
2023-04-01T10:36:52.300Z,99000.03
2023-04-01T10:40:09.249Z,98999.81
2023-04-01T10:43:39.602Z,99003.84
2023-04-01T10:46:54.139Z,99016.22
2023-04-01T10:50:06.479Z,99012.03
2023-04-01T10:53:18.271Z,99015.31
2023-04-01T10:56:59.679Z,99017.47
2023-04-01T11:00:30.969Z,99006.41
2023-04-01T11:04:17.444Z,99017.44
2023-04-01T11:08:26.716Z,99015.13
2023-04-01T11:11:52.584Z,99021.47
2023-04-01T11:15:22.130Z,99011.25
2023-04-01T11:18:49.405Z,99006.47
2023-04-01T11:22:16.305Z,99006.38
2023-04-01T11:26:00.965Z,98998.34
2023-04-01T11:29:24.800Z,98997.81
2023-04-01T11:32:54.995Z,98986.47
2023-04-01T11:36:03.991Z,98979.44
2023-04-01T11:39:30.696Z,98999.69
2023-04-01T11:42:58.335Z,99004.50
2023-04-01T11:46:31.147Z,99001.69
2023-04-01T11:50:15.547Z,99000.59
2023-04-01T11:53:36.348Z,99006.22
2023-04-01T11:56:57.688Z,99005.00
2023-04-01T12:00:03.569Z,99007.75
2023-04-01T12:03:27.820Z,99000.31
2023-04-01T12:06:36.736Z,99004.97
2023-04-01T12:10:04.836Z,99004.31
2023-04-01T12:13:10.024Z,99008.66
2023-04-01T12:16:37.659Z,99006.91
2023-04-01T12:20:13.300Z,99003.91
2023-04-01T12:23:55.932Z,99004.91
2023-04-01T12:27:20.598Z,99005.41
2023-04-01T12:30:49.402Z,98998.19
2023-04-01T12:34:11.823Z,99003.63
2023-04-01T12:37:30.543Z,98993.94
2023-04-01T12:41:04.096Z,98992.94
2023-04-01T12:44:54.143Z,98991.97
2023-04-01T12:48:15.695Z,98990.06
2023-04-01T12:51:35.145Z,98992.00
2023-04-01T12:54:37.706Z,98986.19
2023-04-01T12:57:53.269Z,98988.28
2023-04-01T13:01:42.320Z,98978.81
2023-04-01T13:05:13.732Z,98991.81
2023-04-01T13:08:24.932Z,98971.44
2023-04-01T13:11:38.942Z,98973.75
2023-04-01T13:14:59.123Z,98968.19
2023-04-01T13:18:37.605Z,98985.75
2023-04-01T13:22:00.871Z,98968.25
2023-04-01T13:25:11.953Z,98967.56
2023-04-01T13:28:23.128Z,98969.84
2023-04-01T13:31:47.363Z,98978.22
2023-04-01T13:35:07.839Z,98973.59
2023-04-01T13:38:16.551Z,98975.72
2023-04-01T13:41:56.573Z,98977.75
2023-04-01T13:45:04.948Z,98971.91
2023-04-01T13:48:32.154Z,98967.94
2023-04-01T13:51:41.961Z,98963.09
2023-04-01T13:54:47.527Z,98976.22
2023-04-01T13:58:27.387Z,98958.88
2023-04-01T14:01:50.786Z,98951.09
2023-04-01T14:05:02.445Z,98952.97
2023-04-01T14:08:26.438Z,98961.28
2023-04-01T14:11:34.743Z,98964.50
2023-04-01T14:15:01.856Z,98955.97
2023-04-01T14:18:13.346Z,98956.19
2023-04-01T14:21:30.489Z,98950.03
2023-04-01T14:24:52.185Z,98950.44
2023-04-01T14:28:00.551Z,98956.22
2023-04-01T14:31:31.593Z,98958.41
2023-04-01T14:34:49.324Z,98967.63
2023-04-01T14:38:11.664Z,98970.81
2023-04-01T14:41:36.138Z,98955.91
2023-04-01T14:45:03.988Z,98962.38
2023-04-01T14:48:37.520Z,98954.06
2023-04-01T14:51:43.263Z,98956.56
2023-04-01T14:54:47.761Z,98957.53
2023-04-01T14:58:20.816Z,98959.59
2023-04-01T15:01:49.589Z,98956.72
2023-04-01T15:05:22.773Z,98953.97
2023-04-01T15:08:44.685Z,98962.53
2023-04-01T15:12:08.592Z,98965.94
2023-04-01T15:15:17.255Z,98963.25
2023-04-01T15:18:40.966Z,98960.63
2023-04-01T15:22:21.941Z,98969.63
2023-04-01T15:25:42.886Z,98961.63
2023-04-01T15:29:00.133Z,98966.28
2023-04-01T15:32:16.248Z,98949.41
2023-04-01T15:35:37.455Z,98973.88
2023-04-01T15:39:00.278Z,98972.84
2023-04-01T15:42:43.341Z,98981.97
2023-04-01T15:46:20.270Z,98982.84
2023-04-01T15:49:38.835Z,98985.88
2023-04-01T15:52:56.423Z,98986.50
2023-04-01T15:56:17.400Z,98977.00
2023-04-01T15:59:22.670Z,98981.47
2023-04-01T16:02:32.164Z,98977.03
2023-04-01T16:05:56.769Z,98975.13
2023-04-01T16:09:12.351Z,98982.66
2023-04-01T16:12:24.876Z,98983.50
2023-04-01T16:15:40.342Z,98981.28
2023-04-01T16:18:49.923Z,98990.75
2023-04-01T16:22:32.158Z,98995.47
2023-04-01T16:25:38.339Z,99002.16
2023-04-01T16:28:56.637Z,98994.66
2023-04-01T16:32:41.500Z,98999.38
2023-04-01T16:36:24.362Z,98994.59
2023-04-01T16:39:51.844Z,99004.25
2023-04-01T16:43:06.940Z,99002.53
2023-04-01T16:46:38.349Z,99011.41
2023-04-01T16:49:49.145Z,99015.09
2023-04-01T16:53:16.811Z,99016.59
2023-04-01T16:56:28.819Z,99005.28
2023-04-01T17:00:14.744Z,99031.03
2023-04-01T17:03:39.452Z,99015.13
2023-04-01T17:06:48.357Z,99040.66
2023-04-01T17:09:59.021Z,99044.53
2023-04-01T17:13:29.686Z,99050.75
2023-04-01T17:16:58.688Z,99054.47
2023-04-01T17:20:43.578Z,99059.44
2023-04-01T17:23:53.416Z,99055.28
2023-04-01T17:27:14.648Z,99074.28
2023-04-01T17:30:20.037Z,99080.84
2023-04-01T17:33:46.046Z,99084.41
2023-04-01T17:37:03.753Z,99095.03
2023-04-01T17:40:09.741Z,99097.94
2023-04-01T17:43:37.223Z,99101.03
2023-04-01T17:47:12.416Z,99107.63
2023-04-01T17:50:15.276Z,99109.19
2023-04-01T17:54:01.546Z,99110.16
2023-04-01T17:57:16.546Z,99112.06
2023-04-01T18:00:27.263Z,99117.44
2023-04-01T18:04:06.683Z,99128.16
2023-04-01T18:07:28.110Z,99119.66
2023-04-01T18:10:43.324Z,99133.38
2023-04-01T18:14:23.852Z,99133.13
2023-04-01T18:17:54.376Z,99138.38
2023-04-01T18:21:26.641Z,99137.25
2023-04-01T18:24:30.722Z,99140.38
2023-04-01T18:27:39.583Z,99143.84
2023-04-01T18:30:43.126Z,99140.31
2023-04-01T18:34:07.489Z,99148.22
2023-04-01T18:37:31.790Z,99146.06
2023-04-01T18:40:42.977Z,99142.38
2023-04-01T18:44:19.695Z,99147.91
2023-04-01T18:47:44.028Z,99146.72
2023-04-01T18:51:11.648Z,99154.19
2023-04-01T18:54:34.184Z,99153.72
2023-04-01T18:57:55.251Z,99152.56
2023-04-01T19:01:06.709Z,99160.31
2023-04-01T19:04:35.008Z,99166.91
2023-04-01T19:07:37.814Z,99172.38
2023-04-01T19:11:10.256Z,99154.78
2023-04-01T19:14:21.267Z,99181.03
2023-04-01T19:17:55.635Z,99186.63
2023-04-01T19:21:08.095Z,99187.53
2023-04-01T19:24:20.860Z,99198.09
2023-04-01T19:27:37.628Z,99176.66
2023-04-01T19:31:03.013Z,99197.50
2023-04-01T19:34:27.294Z,99202.31
2023-04-01T19:37:33.604Z,99193.69
2023-04-01T19:40:42.563Z,99214.03
2023-04-01T19:43:49.846Z,99208.81
2023-04-01T19:46:59.582Z,99226.84
2023-04-01T19:50:26.711Z,99223.94
2023-04-01T19:53:36.975Z,99220.81
2023-04-01T19:56:59.910Z,99213.66
2023-04-01T20:00:18.548Z,99210.81
2023-04-01T20:03:36.842Z,99220.25
2023-04-01T20:06:50.754Z,99199.50
2023-04-01T20:10:12.129Z,99220.16
2023-04-01T20:13:41.100Z,99212.59
2023-04-01T20:16:51.819Z,99222.56
2023-04-01T20:20:09.988Z,99220.56
2023-04-01T20:23:25.442Z,99220.78
2023-04-01T20:26:40.872Z,99208.34
2023-04-01T20:30:18.508Z,99217.66
2023-04-01T20:33:28.115Z,99220.16
2023-04-01T20:36:53.515Z,99227.72
2023-04-01T20:40:14.851Z,99238.41
2023-04-01T20:43:51.500Z,99237.75
2023-04-01T20:46:57.182Z,99240.31
2023-04-01T20:50:27.625Z,99250.53
2023-04-01T20:53:43.023Z,99241.13
2023-04-01T20:57:19.901Z,99240.13
2023-04-01T21:00:54.603Z,99240.69
2023-04-01T21:04:30.616Z,99245.03
2023-04-01T21:07:53.433Z,99253.31
2023-04-01T21:11:13.857Z,99259.34
2023-04-01T21:14:44.122Z,99271.03
2023-04-01T21:17:52.866Z,99267.25
2023-04-01T21:20:58.348Z,99261.72
2023-04-01T21:24:12.986Z,99266.97
2023-04-01T21:27:37.948Z,99263.22
2023-04-01T21:31:18.773Z,99234.72
2023-04-01T21:34:45.190Z,99267.28
2023-04-01T21:37:59.663Z,99267.59
2023-04-01T21:41:43.585Z,99274.28
2023-04-01T21:45:04.666Z,99278.06
2023-04-01T21:48:42.583Z,99286.38
2023-04-01T21:52:04.610Z,99294.78
2023-04-01T21:55:33.419Z,99302.81
2023-04-01T21:59:05.633Z,99305.97
2023-04-01T22:02:22.769Z,99302.81
2023-04-01T22:05:28.398Z,99301.06
2023-04-01T22:09:04.285Z,99300.69
2023-04-01T22:12:16.083Z,99296.81
2023-04-01T22:15:47.532Z,99298.50
2023-04-01T22:19:14.302Z,99292.72
2023-04-01T22:22:23.305Z,99309.13
2023-04-01T22:25:41.601Z,99312.06
2023-04-01T22:29:00.915Z,99315.69
2023-04-01T22:32:30.026Z,99328.88
2023-04-01T22:35:53.998Z,99316.88
2023-04-01T22:39:04.176Z,99332.19
2023-04-01T22:42:28.783Z,99333.03
2023-04-01T22:45:58.926Z,99337.72
2023-04-01T22:49:10.831Z,99340.31
2023-04-01T22:52:34.781Z,99344.16
2023-04-01T22:55:53.701Z,99341.41
2023-04-01T22:59:18.668Z,99350.88
2023-04-01T23:02:31.170Z,99351.31
2023-04-01T23:05:36.529Z,99361.72
2023-04-01T23:09:08.994Z,99354.63
2023-04-01T23:12:18.006Z,99358.50
2023-04-01T23:15:24.095Z,99368.91
2023-04-01T23:18:37.584Z,99359.31
2023-04-01T23:21:51.690Z,99372.66
2023-04-01T23:25:34.882Z,99371.84
2023-04-01T23:29:00.693Z,99369.03
2023-04-01T23:32:05.133Z,99372.13
2023-04-01T23:35:17.860Z,99369.88
2023-04-01T23:38:22.694Z,99358.34
2023-04-01T23:41:33.745Z,99365.66
2023-04-01T23:44:37.562Z,99366.81
2023-04-01T23:47:42.084Z,99365.25
2023-04-01T23:50:45.465Z,99368.66
2023-04-01T23:53:57.625Z,99370.97
2023-04-01T23:57:11.653Z,99359.72
